RYR99WT EGSS-EKCH
Flight info
| Callsign | RYR99WT |
|---|---|
| Flight time | 1h 23m |
| Altitude | 35000 |
| Route | CLN P44 SOMVA DCT MAVAS DCT DOSUR P729 TUDLO |
| Aircraft | B738/M-SDE2E3FGHIRWXY/LB1 |
Departure
| Time | 2026-04-25 19:26 |
|---|---|
| Airport | London Stansted Airport (EGSS) |
Arrival
| Time | 2026-04-25 20:50 |
|---|---|
| Airport | Copenhagen Kastrup Airport (EKCH) |
| Time | Latitude | Longitude | Altitude | Speed | Heading |
|---|---|---|---|---|---|
| 2026-04-25 18:42 | 51.89345 | 0.25789 | 348 ft | 0 kts | 43° |
| 2026-04-25 19:18 | 51.89336 | 0.25775 | 348 ft | 4 kts | 43° |
| 2026-04-25 19:19 | 51.89317 | 0.25746 | 353 ft | 4 kts | 34° |
| 2026-04-25 19:19 | 51.89297 | 0.25738 | 356 ft | 4 kts | 322° |
| 2026-04-25 19:19 | 51.89283 | 0.25762 | 358 ft | 4 kts | 313° |
| 2026-04-25 19:19 | 51.89279 | 0.25769 | 358 ft | 1 kts | 313° |
| 2026-04-25 19:22 | 51.89287 | 0.25755 | 358 ft | 6 kts | 313° |
| 2026-04-25 19:22 | 51.89341 | 0.25660 | 351 ft | 14 kts | 313° |
| 2026-04-25 19:22 | 51.89412 | 0.25411 | 350 ft | 11 kts | 244° |
| 2026-04-25 19:23 | 51.89359 | 0.25318 | 351 ft | 11 kts | 236° |
| 2026-04-25 19:23 | 51.89407 | 0.25171 | 352 ft | 1 kts | 314° |
| 2026-04-25 19:23 | 51.89411 | 0.25164 | 348 ft | 0 kts | 313° |
| 2026-04-25 19:25 | 51.89445 | 0.25105 | 351 ft | 9 kts | 313° |
| 2026-04-25 19:25 | 51.89490 | 0.24999 | 355 ft | 13 kts | 272° |
| 2026-04-25 19:25 | 51.89385 | 0.24805 | 355 ft | 53 kts | 222° |
| 2026-04-25 19:26 | 51.88889 | 0.24064 | 346 ft | 139 kts | 223° |
| 2026-04-25 19:26 | 51.88034 | 0.22772 | 660 ft | 182 kts | 224° |
| 2026-04-25 19:26 | 51.87128 | 0.21393 | 1833 ft | 180 kts | 222° |
| 2026-04-25 19:26 | 51.86164 | 0.19985 | 2660 ft | 198 kts | 219° |
| 2026-04-25 19:27 | 51.84872 | 0.18948 | 3110 ft | 217 kts | 186° |
| 2026-04-25 19:27 | 51.83869 | 0.19059 | 3509 ft | 222 kts | 162° |
| 2026-04-25 19:27 | 51.82184 | 0.20953 | 3957 ft | 225 kts | 128° |
| 2026-04-25 19:27 | 51.81498 | 0.23167 | 4001 ft | 221 kts | 103° |
| 2026-04-25 19:28 | 51.81336 | 0.25648 | 4058 ft | 225 kts | 88° |
| 2026-04-25 19:28 | 51.81424 | 0.28239 | 4387 ft | 244 kts | 84° |
| 2026-04-25 19:28 | 51.81565 | 0.31108 | 4925 ft | 263 kts | 84° |
| 2026-04-25 19:28 | 51.81705 | 0.34096 | 5781 ft | 269 kts | 84° |
| 2026-04-25 19:29 | 51.81839 | 0.37141 | 6682 ft | 274 kts | 84° |
| 2026-04-25 19:29 | 51.81973 | 0.40247 | 7527 ft | 279 kts | 84° |
| 2026-04-25 19:29 | 51.82105 | 0.43394 | 8403 ft | 283 kts | 85° |
| 2026-04-25 19:29 | 51.82238 | 0.46592 | 9278 ft | 287 kts | 85° |
| 2026-04-25 19:30 | 51.82372 | 0.49837 | 10144 ft | 292 kts | 85° |
| 2026-04-25 19:30 | 51.82506 | 0.53134 | 10801 ft | 297 kts | 84° |
| 2026-04-25 19:30 | 51.82641 | 0.56466 | 11153 ft | 298 kts | 84° |
| 2026-04-25 19:30 | 51.82776 | 0.59823 | 11196 ft | 300 kts | 84° |
| 2026-04-25 19:31 | 51.82910 | 0.63186 | 11215 ft | 300 kts | 85° |
| 2026-04-25 19:31 | 51.83044 | 0.66574 | 11571 ft | 305 kts | 85° |
| 2026-04-25 19:31 | 51.83179 | 0.69999 | 12445 ft | 305 kts | 85° |
| 2026-04-25 19:31 | 51.83313 | 0.73432 | 13335 ft | 307 kts | 84° |
| 2026-04-25 19:32 | 51.83448 | 0.76906 | 14121 ft | 312 kts | 84° |
| 2026-04-25 19:32 | 51.83584 | 0.80430 | 14828 ft | 316 kts | 84° |
| 2026-04-25 19:32 | 51.83720 | 0.84002 | 15546 ft | 320 kts | 85° |
| 2026-04-25 19:32 | 51.83764 | 0.85170 | 15791 ft | 322 kts | 85° |
| 2026-04-25 19:33 | 51.83993 | 0.91282 | 16973 ft | 329 kts | 85° |
| 2026-04-25 19:33 | 51.84132 | 0.94999 | 17694 ft | 333 kts | 85° |
| 2026-04-25 19:33 | 51.84268 | 0.98707 | 18400 ft | 337 kts | 85° |
| 2026-04-25 19:33 | 51.84410 | 1.02569 | 19039 ft | 341 kts | 85° |
| 2026-04-25 19:34 | 51.84549 | 1.06367 | 19657 ft | 345 kts | 85° |
| 2026-04-25 19:34 | 51.84688 | 1.10255 | 20288 ft | 348 kts | 85° |
| 2026-04-25 19:34 | 51.84856 | 1.14173 | 20903 ft | 351 kts | 80° |
| 2026-04-25 19:34 | 51.85556 | 1.17986 | 21214 ft | 362 kts | 65° |
| 2026-04-25 19:35 | 51.86598 | 1.21805 | 21354 ft | 380 kts | 63° |
| 2026-04-25 19:35 | 51.87723 | 1.25778 | 21481 ft | 397 kts | 63° |
| 2026-04-25 19:35 | 51.88890 | 1.29921 | 21671 ft | 411 kts | 64° |
| 2026-04-25 19:35 | 51.90068 | 1.34186 | 22112 ft | 418 kts | 64° |
| 2026-04-25 19:36 | 51.91241 | 1.38502 | 22693 ft | 420 kts | 65° |
| 2026-04-25 19:36 | 51.92409 | 1.42853 | 23279 ft | 423 kts | 65° |
| 2026-04-25 19:36 | 51.93581 | 1.47241 | 23807 ft | 426 kts | 65° |
| 2026-04-25 19:36 | 51.94760 | 1.51669 | 24258 ft | 429 kts | 65° |
| 2026-04-25 19:37 | 51.95944 | 1.56126 | 24717 ft | 431 kts | 65° |
| 2026-04-25 19:37 | 51.97134 | 1.60607 | 25175 ft | 434 kts | 65° |
| 2026-04-25 19:37 | 51.98331 | 1.65106 | 25607 ft | 436 kts | 65° |
| 2026-04-25 19:37 | 51.99579 | 1.69616 | 26035 ft | 439 kts | 64° |
| 2026-04-25 19:38 | 52.00858 | 1.74129 | 26452 ft | 442 kts | 64° |
| 2026-04-25 19:38 | 52.02153 | 1.78670 | 26860 ft | 444 kts | 64° |
| 2026-04-25 19:38 | 52.03451 | 1.83233 | 27273 ft | 447 kts | 64° |
| 2026-04-25 19:38 | 52.04751 | 1.87829 | 27703 ft | 448 kts | 64° |
| 2026-04-25 19:39 | 52.06048 | 1.92443 | 28107 ft | 450 kts | 65° |
| 2026-04-25 19:39 | 52.07350 | 1.97095 | 28479 ft | 453 kts | 65° |
| 2026-04-25 19:39 | 52.08654 | 2.01771 | 28872 ft | 455 kts | 65° |
| 2026-04-25 19:39 | 52.09961 | 2.06469 | 29251 ft | 457 kts | 65° |
| 2026-04-25 19:40 | 52.11271 | 2.11191 | 29599 ft | 460 kts | 65° |
| 2026-04-25 19:40 | 52.12590 | 2.15953 | 29934 ft | 462 kts | 65° |
| 2026-04-25 19:40 | 52.13910 | 2.20731 | 30266 ft | 465 kts | 65° |
| 2026-04-25 19:40 | 52.15237 | 2.25540 | 30596 ft | 465 kts | 65° |
| 2026-04-25 19:41 | 52.16559 | 2.30342 | 31013 ft | 464 kts | 65° |
| 2026-04-25 19:41 | 52.17429 | 2.33507 | 31319 ft | 462 kts | 65° |
| 2026-04-25 19:41 | 52.18735 | 2.38270 | 31745 ft | 460 kts | 65° |
| 2026-04-25 19:41 | 52.19599 | 2.41422 | 31996 ft | 460 kts | 65° |
| 2026-04-25 19:42 | 52.21781 | 2.49408 | 32583 ft | 460 kts | 65° |
| 2026-04-25 19:42 | 52.22640 | 2.52560 | 32866 ft | 458 kts | 65° |
| 2026-04-25 19:42 | 52.23929 | 2.57296 | 33290 ft | 456 kts | 65° |
| 2026-04-25 19:42 | 52.25213 | 2.62024 | 33651 ft | 456 kts | 65° |
| 2026-04-25 19:43 | 52.26496 | 2.66756 | 34028 ft | 455 kts | 65° |
| 2026-04-25 19:43 | 52.27770 | 2.71469 | 34416 ft | 453 kts | 65° |
| 2026-04-25 19:43 | 52.29040 | 2.76175 | 34715 ft | 453 kts | 65° |
| 2026-04-25 19:43 | 52.30307 | 2.80876 | 34970 ft | 453 kts | 65° |
| 2026-04-25 19:44 | 52.31576 | 2.85597 | 35229 ft | 453 kts | 65° |
| 2026-04-25 19:44 | 52.32847 | 2.90337 | 35246 ft | 458 kts | 65° |
| 2026-04-25 19:44 | 52.35400 | 2.99882 | 35249 ft | 457 kts | 65° |
| 2026-04-25 19:45 | 52.37918 | 3.09335 | 35255 ft | 451 kts | 65° |
| 2026-04-25 19:45 | 52.40631 | 3.18568 | 35245 ft | 450 kts | 55° |
| 2026-04-25 19:46 | 52.44350 | 3.26792 | 35260 ft | 449 kts | 51° |
| 2026-04-25 19:46 | 52.48151 | 3.34926 | 35268 ft | 450 kts | 51° |
| 2026-04-25 19:47 | 52.51928 | 3.43123 | 35257 ft | 451 kts | 51° |
| 2026-04-25 19:47 | 52.55683 | 3.51378 | 35264 ft | 451 kts | 52° |
| 2026-04-25 19:48 | 52.59423 | 3.59656 | 35259 ft | 451 kts | 52° |
| 2026-04-25 19:48 | 52.63159 | 3.67956 | 35260 ft | 451 kts | 52° |
| 2026-04-25 19:49 | 52.66258 | 3.74859 | 35259 ft | 451 kts | 52° |
| 2026-04-25 19:49 | 52.70608 | 3.84580 | 35266 ft | 451 kts | 52° |
| 2026-04-25 19:50 | 52.76137 | 3.97107 | 35261 ft | 450 kts | 52° |
| 2026-04-25 19:51 | 52.79735 | 4.05543 | 35259 ft | 449 kts | 53° |
| 2026-04-25 19:51 | 52.83319 | 4.13985 | 35254 ft | 448 kts | 53° |
| 2026-04-25 19:52 | 52.86892 | 4.22403 | 35256 ft | 447 kts | 53° |
| 2026-04-25 19:52 | 52.90461 | 4.30821 | 35242 ft | 446 kts | 53° |
| 2026-04-25 19:53 | 52.93994 | 4.39180 | 35252 ft | 446 kts | 52° |
| 2026-04-25 19:53 | 52.97568 | 4.47662 | 35233 ft | 446 kts | 53° |
| 2026-04-25 19:54 | 53.01111 | 4.56099 | 35234 ft | 445 kts | 53° |
| 2026-04-25 19:54 | 53.04625 | 4.64493 | 35234 ft | 446 kts | 53° |
| 2026-04-25 19:55 | 53.08157 | 4.72962 | 35236 ft | 446 kts | 53° |
| 2026-04-25 19:55 | 53.11684 | 4.81447 | 35236 ft | 446 kts | 53° |
| 2026-04-25 19:56 | 53.15210 | 4.89957 | 35247 ft | 446 kts | 53° |
| 2026-04-25 19:56 | 53.18731 | 4.98483 | 35241 ft | 447 kts | 53° |
| 2026-04-25 19:57 | 53.22248 | 5.07030 | 35241 ft | 447 kts | 53° |
| 2026-04-25 19:57 | 53.25761 | 5.15595 | 35241 ft | 447 kts | 53° |
| 2026-04-25 19:58 | 53.29266 | 5.24171 | 35230 ft | 447 kts | 53° |
| 2026-04-25 19:58 | 53.32764 | 5.32756 | 35232 ft | 446 kts | 53° |
| 2026-04-25 19:59 | 53.36263 | 5.41375 | 35233 ft | 446 kts | 53° |
| 2026-04-25 19:59 | 53.39732 | 5.49948 | 35231 ft | 446 kts | 53° |
| 2026-04-25 20:00 | 53.43204 | 5.58560 | 35215 ft | 446 kts | 53° |
| 2026-04-25 20:00 | 53.46668 | 5.67180 | 35218 ft | 445 kts | 53° |
| 2026-04-25 20:01 | 53.51852 | 5.80136 | 35201 ft | 445 kts | 53° |
| 2026-04-25 20:01 | 53.55298 | 5.88784 | 35201 ft | 445 kts | 53° |
| 2026-04-25 20:02 | 53.58735 | 5.97442 | 35202 ft | 445 kts | 53° |
| 2026-04-25 20:02 | 53.62166 | 6.06114 | 35209 ft | 445 kts | 53° |
| 2026-04-25 20:03 | 53.65591 | 6.14799 | 35206 ft | 445 kts | 53° |
| 2026-04-25 20:03 | 53.69008 | 6.23495 | 35214 ft | 445 kts | 53° |
| 2026-04-25 20:04 | 53.72420 | 6.32207 | 35223 ft | 445 kts | 53° |
| 2026-04-25 20:04 | 53.75824 | 6.40931 | 35220 ft | 445 kts | 53° |
| 2026-04-25 20:05 | 53.79224 | 6.49673 | 35218 ft | 445 kts | 53° |
| 2026-04-25 20:05 | 53.82618 | 6.58431 | 35230 ft | 445 kts | 53° |
| 2026-04-25 20:06 | 53.86003 | 6.67199 | 35218 ft | 445 kts | 53° |
| 2026-04-25 20:06 | 53.89383 | 6.75981 | 35216 ft | 445 kts | 53° |
| 2026-04-25 20:07 | 53.92734 | 6.84720 | 35233 ft | 445 kts | 52° |
| 2026-04-25 20:07 | 53.96120 | 6.93582 | 35214 ft | 444 kts | 52° |
| 2026-04-25 20:08 | 53.99454 | 7.02338 | 35209 ft | 444 kts | 52° |
| 2026-04-25 20:08 | 54.02820 | 7.11209 | 35208 ft | 443 kts | 52° |
| 2026-04-25 20:09 | 54.06130 | 7.19965 | 35209 ft | 443 kts | 52° |
| 2026-04-25 20:09 | 54.09471 | 7.28832 | 35201 ft | 442 kts | 52° |
| 2026-04-25 20:10 | 54.12754 | 7.37578 | 35203 ft | 440 kts | 52° |
| 2026-04-25 20:10 | 54.16046 | 7.46378 | 35208 ft | 440 kts | 51° |
| 2026-04-25 20:11 | 54.19327 | 7.55178 | 35202 ft | 439 kts | 51° |
| 2026-04-25 20:11 | 54.22593 | 7.63972 | 35191 ft | 438 kts | 51° |
| 2026-04-25 20:12 | 54.25851 | 7.72772 | 35217 ft | 438 kts | 51° |
| 2026-04-25 20:12 | 54.28026 | 7.78666 | 35192 ft | 438 kts | 51° |
| 2026-04-25 20:13 | 54.32339 | 7.90395 | 35177 ft | 437 kts | 51° |
| 2026-04-25 20:13 | 54.35566 | 7.99206 | 35180 ft | 436 kts | 51° |
| 2026-04-25 20:14 | 54.38786 | 8.08030 | 35178 ft | 436 kts | 51° |
| 2026-04-25 20:14 | 54.41997 | 8.16860 | 35152 ft | 436 kts | 51° |
| 2026-04-25 20:15 | 54.45200 | 8.25702 | 35154 ft | 436 kts | 51° |
| 2026-04-25 20:15 | 54.48394 | 8.34548 | 35158 ft | 436 kts | 50° |
| 2026-04-25 20:16 | 54.51583 | 8.43413 | 35136 ft | 435 kts | 50° |
| 2026-04-25 20:16 | 54.54758 | 8.52272 | 35131 ft | 434 kts | 50° |
| 2026-04-25 20:17 | 54.57921 | 8.61129 | 35131 ft | 433 kts | 50° |
| 2026-04-25 20:17 | 54.61075 | 8.69991 | 35132 ft | 433 kts | 50° |
| 2026-04-25 20:18 | 54.64219 | 8.78856 | 35122 ft | 433 kts | 50° |
| 2026-04-25 20:18 | 54.67350 | 8.87719 | 35117 ft | 432 kts | 50° |
| 2026-04-25 20:19 | 54.70473 | 8.96589 | 35118 ft | 432 kts | 50° |
| 2026-04-25 20:19 | 54.73589 | 9.05472 | 35107 ft | 431 kts | 50° |
| 2026-04-25 20:20 | 54.76677 | 9.14305 | 34935 ft | 434 kts | 50° |
| 2026-04-25 20:20 | 54.78259 | 9.18838 | 34681 ft | 433 kts | 50° |
| 2026-04-25 20:20 | 54.79812 | 9.23305 | 34436 ft | 432 kts | 50° |
| 2026-04-25 20:21 | 54.81358 | 9.27763 | 34168 ft | 431 kts | 49° |
| 2026-04-25 20:21 | 54.82903 | 9.32221 | 33488 ft | 431 kts | 49° |
| 2026-04-25 20:21 | 54.84433 | 9.36651 | 33087 ft | 425 kts | 49° |
| 2026-04-25 20:21 | 54.85945 | 9.41039 | 32618 ft | 422 kts | 49° |
| 2026-04-25 20:22 | 54.87423 | 9.45334 | 32206 ft | 418 kts | 49° |
| 2026-04-25 20:22 | 54.87924 | 9.46791 | 32057 ft | 417 kts | 49° |
| 2026-04-25 20:22 | 54.90379 | 9.53933 | 31387 ft | 411 kts | 48° |
| 2026-04-25 20:23 | 54.95804 | 9.69783 | 29770 ft | 401 kts | 48° |
| 2026-04-25 20:23 | 54.97222 | 9.73943 | 29339 ft | 397 kts | 48° |
| 2026-04-25 20:24 | 54.98622 | 9.78063 | 28917 ft | 393 kts | 48° |
| 2026-04-25 20:24 | 55.00006 | 9.82142 | 28497 ft | 389 kts | 48° |
| 2026-04-25 20:24 | 55.01377 | 9.86185 | 28087 ft | 386 kts | 48° |
| 2026-04-25 20:24 | 55.02735 | 9.90197 | 27723 ft | 383 kts | 47° |
| 2026-04-25 20:25 | 55.04084 | 9.94187 | 27292 ft | 381 kts | 47° |
| 2026-04-25 20:25 | 55.05416 | 9.98137 | 26949 ft | 376 kts | 47° |
| 2026-04-25 20:25 | 55.06736 | 10.02057 | 26544 ft | 373 kts | 47° |
| 2026-04-25 20:25 | 55.08045 | 10.05948 | 26149 ft | 371 kts | 47° |
| 2026-04-25 20:26 | 55.09345 | 10.09817 | 25785 ft | 368 kts | 46° |
| 2026-04-25 20:26 | 55.10638 | 10.13669 | 25437 ft | 367 kts | 46° |
| 2026-04-25 20:26 | 55.11923 | 10.17507 | 25029 ft | 365 kts | 46° |
| 2026-04-25 20:26 | 55.13201 | 10.21326 | 24625 ft | 364 kts | 46° |
| 2026-04-25 20:27 | 55.14475 | 10.25142 | 24235 ft | 362 kts | 46° |
| 2026-04-25 20:27 | 55.15741 | 10.28944 | 23837 ft | 361 kts | 46° |
| 2026-04-25 20:27 | 55.17003 | 10.32735 | 23408 ft | 360 kts | 46° |
| 2026-04-25 20:27 | 55.18255 | 10.36507 | 22978 ft | 358 kts | 46° |
| 2026-04-25 20:28 | 55.19501 | 10.40267 | 22570 ft | 355 kts | 46° |
| 2026-04-25 20:28 | 55.20732 | 10.43990 | 22200 ft | 352 kts | 46° |
| 2026-04-25 20:28 | 55.21954 | 10.47688 | 21821 ft | 349 kts | 45° |
| 2026-04-25 20:28 | 55.23165 | 10.51354 | 21434 ft | 347 kts | 45° |
| 2026-04-25 20:29 | 55.24368 | 10.54999 | 21071 ft | 344 kts | 45° |
| 2026-04-25 20:29 | 55.25562 | 10.58626 | 20699 ft | 342 kts | 45° |
| 2026-04-25 20:29 | 55.26745 | 10.62229 | 20331 ft | 340 kts | 45° |
| 2026-04-25 20:29 | 55.27821 | 10.65966 | 19954 ft | 351 kts | 54° |
| 2026-04-25 20:30 | 55.28587 | 10.70095 | 19579 ft | 357 kts | 59° |
| 2026-04-25 20:30 | 55.29279 | 10.74276 | 19204 ft | 357 kts | 59° |
| 2026-04-25 20:30 | 55.29962 | 10.78457 | 18829 ft | 356 kts | 59° |
| 2026-04-25 20:30 | 55.30651 | 10.82617 | 18507 ft | 354 kts | 58° |
| 2026-04-25 20:31 | 55.31348 | 10.86747 | 18073 ft | 353 kts | 58° |
| 2026-04-25 20:31 | 55.32045 | 10.90857 | 17657 ft | 350 kts | 58° |
| 2026-04-25 20:31 | 55.32738 | 10.94940 | 17272 ft | 347 kts | 58° |
| 2026-04-25 20:31 | 55.33420 | 10.98991 | 16971 ft | 345 kts | 58° |
| 2026-04-25 20:32 | 55.34091 | 11.03019 | 16704 ft | 342 kts | 58° |
| 2026-04-25 20:32 | 55.34759 | 11.07033 | 16451 ft | 344 kts | 58° |
| 2026-04-25 20:32 | 55.35437 | 11.11091 | 16232 ft | 348 kts | 59° |
| 2026-04-25 20:32 | 55.36111 | 11.15159 | 15945 ft | 346 kts | 59° |
| 2026-04-25 20:33 | 55.36776 | 11.19205 | 15568 ft | 343 kts | 59° |
| 2026-04-25 20:33 | 55.37436 | 11.23226 | 15190 ft | 341 kts | 59° |
| 2026-04-25 20:33 | 55.38091 | 11.27218 | 14815 ft | 339 kts | 59° |
| 2026-04-25 20:33 | 55.38523 | 11.29852 | 14560 ft | 338 kts | 59° |
| 2026-04-25 20:34 | 55.39394 | 11.35162 | 14024 ft | 337 kts | 59° |
| 2026-04-25 20:34 | 55.40043 | 11.39123 | 13586 ft | 337 kts | 60° |
| 2026-04-25 20:34 | 55.40688 | 11.43079 | 13166 ft | 335 kts | 61° |
| 2026-04-25 20:34 | 55.41327 | 11.47012 | 12763 ft | 333 kts | 62° |
| 2026-04-25 20:35 | 55.41962 | 11.50925 | 12366 ft | 331 kts | 62° |
| 2026-04-25 20:35 | 55.42588 | 11.54798 | 12108 ft | 324 kts | 63° |
| 2026-04-25 20:35 | 55.43184 | 11.58531 | 11927 ft | 310 kts | 63° |
| 2026-04-25 20:35 | 55.43756 | 11.62099 | 11747 ft | 295 kts | 61° |
| 2026-04-25 20:36 | 55.44608 | 11.65227 | 11432 ft | 275 kts | 44° |
| 2026-04-25 20:36 | 55.45706 | 11.67950 | 11154 ft | 272 kts | 44° |
| 2026-04-25 20:36 | 55.46797 | 11.70656 | 10865 ft | 270 kts | 45° |
| 2026-04-25 20:36 | 55.47876 | 11.73364 | 10578 ft | 269 kts | 46° |
| 2026-04-25 20:37 | 55.48940 | 11.76073 | 10325 ft | 268 kts | 47° |
| 2026-04-25 20:37 | 55.49981 | 11.78743 | 10033 ft | 268 kts | 47° |
| 2026-04-25 20:37 | 55.51030 | 11.81450 | 9729 ft | 266 kts | 48° |
| 2026-04-25 20:37 | 55.52065 | 11.84134 | 9482 ft | 263 kts | 48° |
| 2026-04-25 20:38 | 55.53091 | 11.86797 | 9190 ft | 261 kts | 49° |
| 2026-04-25 20:38 | 55.54098 | 11.89429 | 8966 ft | 256 kts | 49° |
| 2026-04-25 20:38 | 55.55090 | 11.92026 | 8721 ft | 254 kts | 49° |
| 2026-04-25 20:38 | 55.56074 | 11.94605 | 8453 ft | 252 kts | 49° |
| 2026-04-25 20:39 | 55.57050 | 11.97166 | 8183 ft | 250 kts | 49° |
| 2026-04-25 20:39 | 55.58019 | 11.99706 | 7924 ft | 249 kts | 49° |
| 2026-04-25 20:39 | 55.58983 | 12.02237 | 7659 ft | 247 kts | 49° |
| 2026-04-25 20:39 | 55.59617 | 12.03906 | 7485 ft | 246 kts | 49° |
| 2026-04-25 20:40 | 55.60889 | 12.07256 | 7129 ft | 245 kts | 50° |
| 2026-04-25 20:40 | 55.61835 | 12.09747 | 6863 ft | 243 kts | 50° |
| 2026-04-25 20:40 | 55.62482 | 12.12528 | 6674 ft | 251 kts | 77° |
| 2026-04-25 20:40 | 55.62264 | 12.15635 | 6481 ft | 265 kts | 107° |
| 2026-04-25 20:41 | 55.61171 | 12.18340 | 6307 ft | 279 kts | 137° |
| 2026-04-25 20:41 | 55.59430 | 12.19987 | 6119 ft | 290 kts | 160° |
| 2026-04-25 20:41 | 55.57509 | 12.20956 | 6003 ft | 281 kts | 164° |
| 2026-04-25 20:41 | 55.55665 | 12.21799 | 5867 ft | 268 kts | 165° |
| 2026-04-25 20:42 | 55.53884 | 12.22600 | 5578 ft | 262 kts | 165° |
| 2026-04-25 20:42 | 55.52122 | 12.23385 | 5214 ft | 261 kts | 165° |
| 2026-04-25 20:42 | 55.50364 | 12.24167 | 4855 ft | 259 kts | 165° |
| 2026-04-25 20:42 | 55.48619 | 12.24943 | 4480 ft | 258 kts | 165° |
| 2026-04-25 20:43 | 55.46876 | 12.25716 | 4098 ft | 258 kts | 165° |
| 2026-04-25 20:43 | 55.45134 | 12.26485 | 3734 ft | 257 kts | 165° |
| 2026-04-25 20:43 | 55.43527 | 12.27742 | 3336 ft | 250 kts | 132° |
| 2026-04-25 20:43 | 55.42739 | 12.30170 | 3263 ft | 214 kts | 89° |
| 2026-04-25 20:44 | 55.42989 | 12.32459 | 3089 ft | 180 kts | 51° |
| 2026-04-25 20:44 | 55.43649 | 12.34280 | 2870 ft | 171 kts | 47° |
| 2026-04-25 20:44 | 55.44320 | 12.36021 | 2738 ft | 173 kts | 45° |
| 2026-04-25 20:44 | 55.45067 | 12.37648 | 2619 ft | 174 kts | 40° |
| 2026-04-25 20:45 | 55.45868 | 12.39254 | 2554 ft | 175 kts | 40° |
| 2026-04-25 20:45 | 55.46704 | 12.40796 | 2550 ft | 172 kts | 37° |
| 2026-04-25 20:45 | 55.47569 | 12.42228 | 2518 ft | 169 kts | 35° |
| 2026-04-25 20:45 | 55.48439 | 12.43605 | 2530 ft | 168 kts | 34° |
| 2026-04-25 20:46 | 55.49307 | 12.44963 | 2523 ft | 160 kts | 34° |
| 2026-04-25 20:46 | 55.50112 | 12.46216 | 2442 ft | 154 kts | 33° |
| 2026-04-25 20:46 | 55.50919 | 12.47469 | 2232 ft | 151 kts | 33° |
| 2026-04-25 20:46 | 55.51705 | 12.48688 | 2038 ft | 150 kts | 33° |
| 2026-04-25 20:47 | 55.52485 | 12.49900 | 1839 ft | 149 kts | 32° |
| 2026-04-25 20:47 | 55.53262 | 12.51107 | 1622 ft | 148 kts | 32° |
| 2026-04-25 20:47 | 55.54041 | 12.52313 | 1427 ft | 150 kts | 33° |
| 2026-04-25 20:47 | 55.54800 | 12.53497 | 1213 ft | 141 kts | 32° |
| 2026-04-25 20:48 | 55.55521 | 12.54617 | 1013 ft | 136 kts | 31° |
| 2026-04-25 20:48 | 55.56227 | 12.55699 | 802 ft | 134 kts | 33° |
| 2026-04-25 20:48 | 55.56943 | 12.56814 | 631 ft | 142 kts | 36° |
| 2026-04-25 20:48 | 55.57683 | 12.57984 | 459 ft | 142 kts | 35° |
| 2026-04-25 20:49 | 55.58419 | 12.59113 | 275 ft | 139 kts | 35° |
| 2026-04-25 20:49 | 55.59149 | 12.60240 | 90 ft | 141 kts | 36° |
| 2026-04-25 20:49 | 55.59851 | 12.61323 | 22 ft | 111 kts | 41° |
| 2026-04-25 20:49 | 55.60279 | 12.61983 | 23 ft | 57 kts | 40° |
| 2026-04-25 20:50 | 55.60528 | 12.62296 | 26 ft | 35 kts | 23° |
| 2026-04-25 20:50 | 55.60728 | 12.62378 | 23 ft | 28 kts | 12° |
| 2026-04-25 20:50 | 55.60882 | 12.62539 | 24 ft | 23 kts | 40° |
| 2026-04-25 20:50 | 55.61002 | 12.62721 | 23 ft | 22 kts | 41° |
| 2026-04-25 20:51 | 55.61119 | 12.62903 | 23 ft | 23 kts | 41° |
| 2026-04-25 20:51 | 55.61244 | 12.63097 | 26 ft | 25 kts | 41° |
| 2026-04-25 20:51 | 55.61368 | 12.63289 | 27 ft | 23 kts | 41° |
| 2026-04-25 20:51 | 55.61486 | 12.63472 | 23 ft | 22 kts | 41° |
| 2026-04-25 20:52 | 55.61600 | 12.63650 | 23 ft | 22 kts | 41° |
| 2026-04-25 20:52 | 55.61637 | 12.63707 | 23 ft | 21 kts | 41° |
| 2026-04-25 20:52 | 55.61812 | 12.63977 | 24 ft | 19 kts | 40° |
| 2026-04-25 20:52 | 55.61915 | 12.64105 | 23 ft | 17 kts | 26° |
| 2026-04-25 20:53 | 55.62020 | 12.64193 | 25 ft | 17 kts | 25° |
| 2026-04-25 20:53 | 55.62114 | 12.64273 | 23 ft | 11 kts | 25° |
| 2026-04-25 20:53 | 55.62135 | 12.64290 | 24 ft | 0 kts | 25° |
| 2026-04-25 20:54 | 55.62146 | 12.64300 | 22 ft | 7 kts | 25° |
| 2026-04-25 20:54 | 55.62221 | 12.64363 | 22 ft | 15 kts | 25° |
| 2026-04-25 20:55 | 55.62276 | 12.64511 | 24 ft | 14 kts | 66° |
| 2026-04-25 20:55 | 55.62316 | 12.64668 | 23 ft | 13 kts | 66° |
| 2026-04-25 20:55 | 55.62351 | 12.64808 | 24 ft | 12 kts | 71° |
| 2026-04-25 20:55 | 55.62327 | 12.64942 | 23 ft | 12 kts | 124° |
| 2026-04-25 20:56 | 55.62279 | 12.65073 | 24 ft | 14 kts | 113° |
| 2026-04-25 20:56 | 55.62322 | 12.65205 | 23 ft | 13 kts | 12° |
| 2026-04-25 20:56 | 55.62412 | 12.65207 | 24 ft | 13 kts | 11° |
| 2026-04-25 20:56 | 55.62441 | 12.65346 | 23 ft | 13 kts | 89° |
| 2026-04-25 20:57 | 55.62443 | 12.65518 | 23 ft | 11 kts | 89° |
| 2026-04-25 20:57 | 55.62447 | 12.65645 | 25 ft | 10 kts | 74° |
| 2026-04-25 20:57 | 55.62504 | 12.65682 | 23 ft | 6 kts | 359° |
| 2026-04-25 20:57 | 55.62519 | 12.65682 | 23 ft | 0 kts | 359° |